sensor_id;sensor_type;location;lat;lon;timestamp;temperature;humidity
1468;DHT22;727;48.892;9.544;2022-08-23T00:02:14;15.30;99.90
1468;DHT22;727;48.892;9.544;2022-08-23T00:04:42;15.20;99.90
1468;DHT22;727;48.892;9.544;2022-08-23T00:07:13;15.30;99.90
1468;DHT22;727;48.892;9.544;2022-08-23T00:09:40;15.20;99.90
1468;DHT22;727;48.892;9.544;2022-08-23T00:12:11;15.20;99.90
1468;DHT22;727;48.892;9.544;2022-08-23T00:14:40;15.20;99.90
1468;DHT22;727;48.892;9.544;2022-08-23T00:17:09;15.20;99.90
1468;DHT22;727;48.892;9.544;2022-08-23T00:19:37;15.30;99.90
1468;DHT22;727;48.892;9.544;2022-08-23T00:22:05;15.40;99.90
1468;DHT22;727;48.892;9.544;2022-08-23T00:24:32;15.30;99.90
1468;DHT22;727;48.892;9.544;2022-08-23T00:27:01;15.20;99.90
1468;DHT22;727;48.892;9.544;2022-08-23T00:29:33;15.10;99.90
1468;DHT22;727;48.892;9.544;2022-08-23T00:32:01;15.00;99.90
1468;DHT22;727;48.892;9.544;2022-08-23T00:34:29;15.00;99.90
1468;DHT22;727;48.892;9.544;2022-08-23T00:36:56;15.00;99.90
1468;DHT22;727;48.892;9.544;2022-08-23T00:39:23;14.90;99.90
1468;DHT22;727;48.892;9.544;2022-08-23T00:41:50;14.90;99.90
1468;DHT22;727;48.892;9.544;2022-08-23T00:44:21;14.80;99.90
1468;DHT22;727;48.892;9.544;2022-08-23T00:47:07;14.70;99.90
1468;DHT22;727;48.892;9.544;2022-08-23T00:49:57;14.70;99.90
1468;DHT22;727;48.892;9.544;2022-08-23T00:52:31;14.70;99.90
1468;DHT22;727;48.892;9.544;2022-08-23T00:54:59;14.70;99.90
1468;DHT22;727;48.892;9.544;2022-08-23T00:57:26;14.60;99.90
1468;DHT22;727;48.892;9.544;2022-08-23T00:59:54;14.60;99.90
1468;DHT22;727;48.892;9.544;2022-08-23T01:02:21;14.60;99.90
1468;DHT22;727;48.892;9.544;2022-08-23T01:04:50;14.50;99.90
1468;DHT22;727;48.892;9.544;2022-08-23T01:07:28;14.50;99.90
1468;DHT22;727;48.892;9.544;2022-08-23T01:10:02;14.50;99.90
1468;DHT22;727;48.892;9.544;2022-08-23T01:12:33;14.50;99.90
1468;DHT22;727;48.892;9.544;2022-08-23T01:15:04;14.50;99.90
1468;DHT22;727;48.892;9.544;2022-08-23T01:17:35;14.50;99.90
1468;DHT22;727;48.892;9.544;2022-08-23T01:20:07;14.50;99.90
1468;DHT22;727;48.892;9.544;2022-08-23T01:22:41;14.50;99.90
1468;DHT22;727;48.892;9.544;2022-08-23T01:25:15;14.50;99.90
1468;DHT22;727;48.892;9.544;2022-08-23T01:27:44;14.50;99.90
1468;DHT22;727;48.892;9.544;2022-08-23T01:30:13;14.50;99.90
1468;DHT22;727;48.892;9.544;2022-08-23T01:32:45;14.50;99.90
1468;DHT22;727;48.892;9.544;2022-08-23T01:35:13;14.50;99.90
1468;DHT22;727;48.892;9.544;2022-08-23T01:37:42;14.50;99.90
1468;DHT22;727;48.892;9.544;2022-08-23T01:40:12;14.40;99.90
1468;DHT22;727;48.892;9.544;2022-08-23T01:42:39;14.40;99.90
1468;DHT22;727;48.892;9.544;2022-08-23T01:45:08;14.50;99.90
1468;DHT22;727;48.892;9.544;2022-08-23T01:47:35;14.50;99.90
1468;DHT22;727;48.892;9.544;2022-08-23T01:50:03;14.40;99.90
1468;DHT22;727;48.892;9.544;2022-08-23T01:52:30;14.50;99.90
1468;DHT22;727;48.892;9.544;2022-08-23T01:54:57;14.40;99.90
1468;DHT22;727;48.892;9.544;2022-08-23T01:57:25;14.40;99.90
1468;DHT22;727;48.892;9.544;2022-08-23T01:59:51;14.40;99.90
1468;DHT22;727;48.892;9.544;2022-08-23T02:02:18;14.30;99.90
1468;DHT22;727;48.892;9.544;2022-08-23T02:04:45;14.20;99.90
1468;DHT22;727;48.892;9.544;2022-08-23T02:07:12;14.20;99.90
1468;DHT22;727;48.892;9.544;2022-08-23T02:09:39;14.30;99.90
1468;DHT22;727;48.892;9.544;2022-08-23T02:12:06;14.30;99.90
1468;DHT22;727;48.892;9.544;2022-08-23T02:14:34;14.30;99.90
1468;DHT22;727;48.892;9.544;2022-08-23T02:17:06;14.20;99.90
1468;DHT22;727;48.892;9.544;2022-08-23T02:19:33;14.20;99.90
1468;DHT22;727;48.892;9.544;2022-08-23T02:22:01;14.10;99.90
1468;DHT22;727;48.892;9.544;2022-08-23T02:24:27;14.10;99.90
1468;DHT22;727;48.892;9.544;2022-08-23T02:26:57;14.00;99.90
1468;DHT22;727;48.892;9.544;2022-08-23T02:29:26;14.00;99.90
1468;DHT22;727;48.892;9.544;2022-08-23T02:31:55;14.00;99.90
1468;DHT22;727;48.892;9.544;2022-08-23T02:34:22;13.90;99.90
1468;DHT22;727;48.892;9.544;2022-08-23T02:36:49;13.90;99.90
1468;DHT22;727;48.892;9.544;2022-08-23T02:39:17;13.80;99.90
1468;DHT22;727;48.892;9.544;2022-08-23T02:41:43;13.80;99.90
1468;DHT22;727;48.892;9.544;2022-08-23T02:44:11;13.80;99.90
1468;DHT22;727;48.892;9.544;2022-08-23T02:46:38;13.80;99.90
1468;DHT22;727;48.892;9.544;2022-08-23T02:49:07;13.80;99.90
1468;DHT22;727;48.892;9.544;2022-08-23T02:51:34;13.80;99.90
1468;DHT22;727;48.892;9.544;2022-08-23T02:54:01;13.80;99.90
1468;DHT22;727;48.892;9.544;2022-08-23T02:56:27;13.80;99.90
1468;DHT22;727;48.892;9.544;2022-08-23T02:58:55;13.70;99.90
1468;DHT22;727;48.892;9.544;2022-08-23T03:01:24;13.70;99.90
1468;DHT22;727;48.892;9.544;2022-08-23T03:03:51;13.70;99.90
1468;DHT22;727;48.892;9.544;2022-08-23T03:06:20;13.70;99.90
1468;DHT22;727;48.892;9.544;2022-08-23T03:08:47;13.70;99.90
1468;DHT22;727;48.892;9.544;2022-08-23T03:11:16;13.70;99.90
1468;DHT22;727;48.892;9.544;2022-08-23T03:13:43;13.60;99.90
1468;DHT22;727;48.892;9.544;2022-08-23T03:16:11;13.60;99.90
1468;DHT22;727;48.892;9.544;2022-08-23T03:18:39;13.60;99.90
1468;DHT22;727;48.892;9.544;2022-08-23T03:21:08;13.60;99.90
1468;DHT22;727;48.892;9.544;2022-08-23T03:23:37;13.60;99.90
1468;DHT22;727;48.892;9.544;2022-08-23T03:26:06;13.60;99.90
1468;DHT22;727;48.892;9.544;2022-08-23T03:28:33;13.50;99.90
1468;DHT22;727;48.892;9.544;2022-08-23T03:31:00;13.60;99.90
1468;DHT22;727;48.892;9.544;2022-08-23T03:33:27;13.50;99.90
1468;DHT22;727;48.892;9.544;2022-08-23T03:35:57;13.50;99.90
1468;DHT22;727;48.892;9.544;2022-08-23T03:38:23;13.50;99.90
1468;DHT22;727;48.892;9.544;2022-08-23T03:40:51;13.50;99.90
1468;DHT22;727;48.892;9.544;2022-08-23T03:43:19;13.50;99.90
1468;DHT22;727;48.892;9.544;2022-08-23T03:45:46;13.40;99.90
1468;DHT22;727;48.892;9.544;2022-08-23T03:48:12;13.50;99.90
1468;DHT22;727;48.892;9.544;2022-08-23T03:50:39;13.50;99.90
1468;DHT22;727;48.892;9.544;2022-08-23T03:53:06;13.50;99.90
1468;DHT22;727;48.892;9.544;2022-08-23T03:55:33;13.50;99.90
1468;DHT22;727;48.892;9.544;2022-08-23T03:58:01;13.40;99.90
1468;DHT22;727;48.892;9.544;2022-08-23T04:00:27;13.40;99.90
1468;DHT22;727;48.892;9.544;2022-08-23T04:02:54;13.40;99.90
1468;DHT22;727;48.892;9.544;2022-08-23T04:05:21;13.30;99.90
1468;DHT22;727;48.892;9.544;2022-08-23T04:07:47;13.40;99.90
1468;DHT22;727;48.892;9.544;2022-08-23T04:10:14;13.30;99.90
1468;DHT22;727;48.892;9.544;2022-08-23T04:12:42;13.40;99.90
1468;DHT22;727;48.892;9.544;2022-08-23T04:15:10;13.30;99.90
1468;DHT22;727;48.892;9.544;2022-08-23T04:17:38;13.40;99.90
1468;DHT22;727;48.892;9.544;2022-08-23T04:20:06;13.30;99.90
1468;DHT22;727;48.892;9.544;2022-08-23T04:22:33;13.40;99.90
1468;DHT22;727;48.892;9.544;2022-08-23T04:25:00;13.30;99.90
1468;DHT22;727;48.892;9.544;2022-08-23T04:27:27;13.30;99.90
1468;DHT22;727;48.892;9.544;2022-08-23T04:29:54;13.30;99.90
1468;DHT22;727;48.892;9.544;2022-08-23T04:32:22;13.30;99.90
1468;DHT22;727;48.892;9.544;2022-08-23T04:34:48;13.20;99.90
1468;DHT22;727;48.892;9.544;2022-08-23T04:37:15;13.20;99.90
1468;DHT22;727;48.892;9.544;2022-08-23T04:39:42;13.20;99.90
1468;DHT22;727;48.892;9.544;2022-08-23T04:42:27;13.20;99.90
1468;DHT22;727;48.892;9.544;2022-08-23T04:44:54;13.20;99.90
1468;DHT22;727;48.892;9.544;2022-08-23T04:47:23;13.20;99.90
1468;DHT22;727;48.892;9.544;2022-08-23T04:49:49;13.20;99.90
1468;DHT22;727;48.892;9.544;2022-08-23T04:52:16;13.30;99.90
1468;DHT22;727;48.892;9.544;2022-08-23T04:54:44;13.40;99.90
1468;DHT22;727;48.892;9.544;2022-08-23T04:57:11;13.50;99.90
1468;DHT22;727;48.892;9.544;2022-08-23T04:59:39;14.00;99.90
1468;DHT22;727;48.892;9.544;2022-08-23T05:02:07;15.00;99.90
1468;DHT22;727;48.892;9.544;2022-08-23T05:04:35;16.00;99.90
1468;DHT22;727;48.892;9.544;2022-08-23T05:07:01;17.00;99.90
1468;DHT22;727;48.892;9.544;2022-08-23T05:09:28;17.70;98.60
1468;DHT22;727;48.892;9.544;2022-08-23T05:11:55;17.60;96.70
1468;DHT22;727;48.892;9.544;2022-08-23T05:14:21;17.10;96.80
1468;DHT22;727;48.892;9.544;2022-08-23T05:16:48;16.50;98.00
1468;DHT22;727;48.892;9.544;2022-08-23T05:19:15;16.40;99.30
1468;DHT22;727;48.892;9.544;2022-08-23T05:21:44;17.30;98.60
1468;DHT22;727;48.892;9.544;2022-08-23T05:24:11;18.40;96.10
1468;DHT22;727;48.892;9.544;2022-08-23T05:26:38;19.70;93.30
1468;DHT22;727;48.892;9.544;2022-08-23T05:29:04;20.60;91.30
1468;DHT22;727;48.892;9.544;2022-08-23T05:31:31;21.20;87.60
1468;DHT22;727;48.892;9.544;2022-08-23T05:33:58;21.50;84.80
1468;DHT22;727;48.892;9.544;2022-08-23T05:36:25;21.90;82.40
1468;DHT22;727;48.892;9.544;2022-08-23T05:38:53;22.10;80.00
1468;DHT22;727;48.892;9.544;2022-08-23T05:41:20;22.50;78.60
1468;DHT22;727;48.892;9.544;2022-08-23T05:43:47;22.90;76.50
1468;DHT22;727;48.892;9.544;2022-08-23T05:46:16;23.30;74.30
1468;DHT22;727;48.892;9.544;2022-08-23T05:48:46;24.00;72.80
1468;DHT22;727;48.892;9.544;2022-08-23T05:51:15;24.40;72.00
1468;DHT22;727;48.892;9.544;2022-08-23T05:53:43;25.10;69.70
1468;DHT22;727;48.892;9.544;2022-08-23T05:56:16;25.60;66.70
1468;DHT22;727;48.892;9.544;2022-08-23T05:58:43;25.80;65.30
1468;DHT22;727;48.892;9.544;2022-08-23T06:01:11;26.10;63.90
1468;DHT22;727;48.892;9.544;2022-08-23T06:03:38;26.40;61.50
1468;DHT22;727;48.892;9.544;2022-08-23T06:06:05;26.50;60.90
1468;DHT22;727;48.892;9.544;2022-08-23T06:08:33;26.80;59.60
1468;DHT22;727;48.892;9.544;2022-08-23T06:11:01;26.70;58.90
1468;DHT22;727;48.892;9.544;2022-08-23T06:13:29;26.60;59.50
1468;DHT22;727;48.892;9.544;2022-08-23T06:15:56;26.90;59.20
1468;DHT22;727;48.892;9.544;2022-08-23T06:18:24;26.90;59.20
1468;DHT22;727;48.892;9.544;2022-08-23T06:21:01;26.80;58.70
1468;DHT22;727;48.892;9.544;2022-08-23T06:23:29;26.60;58.80
1468;DHT22;727;48.892;9.544;2022-08-23T06:25:56;26.20;59.80
1468;DHT22;727;48.892;9.544;2022-08-23T06:28:23;27.00;59.00
1468;DHT22;727;48.892;9.544;2022-08-23T06:30:53;27.10;57.90
1468;DHT22;727;48.892;9.544;2022-08-23T06:33:20;26.80;57.80
1468;DHT22;727;48.892;9.544;2022-08-23T06:35:47;26.10;58.70
1468;DHT22;727;48.892;9.544;2022-08-23T06:38:15;25.40;61.40
1468;DHT22;727;48.892;9.544;2022-08-23T06:40:42;24.90;61.70
1468;DHT22;727;48.892;9.544;2022-08-23T06:43:09;24.20;64.50
1468;DHT22;727;48.892;9.544;2022-08-23T06:45:36;23.90;65.20
1468;DHT22;727;48.892;9.544;2022-08-23T06:48:04;23.40;67.20
1468;DHT22;727;48.892;9.544;2022-08-23T06:50:32;23.00;69.10
1468;DHT22;727;48.892;9.544;2022-08-23T06:52:59;22.60;69.70
1468;DHT22;727;48.892;9.544;2022-08-23T06:55:25;22.50;70.50
1468;DHT22;727;48.892;9.544;2022-08-23T06:57:53;22.50;72.50
1468;DHT22;727;48.892;9.544;2022-08-23T07:00:20;22.80;72.90
1468;DHT22;727;48.892;9.544;2022-08-23T07:02:47;22.70;70.40
1468;DHT22;727;48.892;9.544;2022-08-23T07:05:15;22.70;70.60
1468;DHT22;727;48.892;9.544;2022-08-23T07:07:42;22.80;70.80
1468;DHT22;727;48.892;9.544;2022-08-23T07:10:09;22.80;70.80
1468;DHT22;727;48.892;9.544;2022-08-23T07:12:38;23.00;69.80
1468;DHT22;727;48.892;9.544;2022-08-23T07:15:07;22.90;68.80
1468;DHT22;727;48.892;9.544;2022-08-23T07:17:34;22.80;69.30
1468;DHT22;727;48.892;9.544;2022-08-23T07:20:01;23.00;68.90
1468;DHT22;727;48.892;9.544;2022-08-23T07:22:29;23.20;67.70
1468;DHT22;727;48.892;9.544;2022-08-23T07:24:55;23.20;67.90
1468;DHT22;727;48.892;9.544;2022-08-23T07:27:22;23.30;68.40
1468;DHT22;727;48.892;9.544;2022-08-23T07:29:50;23.70;67.40
1468;DHT22;727;48.892;9.544;2022-08-23T07:32:17;24.00;66.30
1468;DHT22;727;48.892;9.544;2022-08-23T07:34:44;24.20;66.30
1468;DHT22;727;48.892;9.544;2022-08-23T07:37:11;24.40;65.40
1468;DHT22;727;48.892;9.544;2022-08-23T07:39:39;24.40;64.80
1468;DHT22;727;48.892;9.544;2022-08-23T07:42:06;24.40;64.00
1468;DHT22;727;48.892;9.544;2022-08-23T07:44:34;24.50;64.30
1468;DHT22;727;48.892;9.544;2022-08-23T07:47:03;24.90;64.10
1468;DHT22;727;48.892;9.544;2022-08-23T07:49:30;24.90;63.20
1468;DHT22;727;48.892;9.544;2022-08-23T07:51:57;25.20;63.20
1468;DHT22;727;48.892;9.544;2022-08-23T07:54:24;25.40;63.60
1468;DHT22;727;48.892;9.544;2022-08-23T07:56:54;25.70;62.70
1468;DHT22;727;48.892;9.544;2022-08-23T07:59:20;25.70;62.20
1468;DHT22;727;48.892;9.544;2022-08-23T08:01:48;25.90;60.50
1468;DHT22;727;48.892;9.544;2022-08-23T08:04:14;26.00;58.60
1468;DHT22;727;48.892;9.544;2022-08-23T08:06:44;26.10;58.80
1468;DHT22;727;48.892;9.544;2022-08-23T08:09:13;26.30;57.80
1468;DHT22;727;48.892;9.544;2022-08-23T08:11:42;26.40;58.10
1468;DHT22;727;48.892;9.544;2022-08-23T08:14:16;26.60;57.80
1468;DHT22;727;48.892;9.544;2022-08-23T08:16:46;26.80;57.10
1468;DHT22;727;48.892;9.544;2022-08-23T08:19:24;27.00;56.50
1468;DHT22;727;48.892;9.544;2022-08-23T08:22:00;27.20;56.00
1468;DHT22;727;48.892;9.544;2022-08-23T08:24:27;27.30;53.90
1468;DHT22;727;48.892;9.544;2022-08-23T08:26:54;27.40;53.70
1468;DHT22;727;48.892;9.544;2022-08-23T08:29:22;27.60;53.10
1468;DHT22;727;48.892;9.544;2022-08-23T08:31:49;27.70;53.60
1468;DHT22;727;48.892;9.544;2022-08-23T08:34:16;28.00;52.70
1468;DHT22;727;48.892;9.544;2022-08-23T08:36:45;28.20;52.00
1468;DHT22;727;48.892;9.544;2022-08-23T08:39:16;28.20;50.40
1468;DHT22;727;48.892;9.544;2022-08-23T08:42:00;28.30;50.50
1468;DHT22;727;48.892;9.544;2022-08-23T08:44:47;28.40;50.10
1468;DHT22;727;48.892;9.544;2022-08-23T08:47:18;28.40;50.10
1468;DHT22;727;48.892;9.544;2022-08-23T08:49:51;28.50;49.20
1468;DHT22;727;48.892;9.544;2022-08-23T08:52:22;28.70;49.30
1468;DHT22;727;48.892;9.544;2022-08-23T08:54:54;28.70;48.50
1468;DHT22;727;48.892;9.544;2022-08-23T08:57:25;28.80;48.90
1468;DHT22;727;48.892;9.544;2022-08-23T08:59:57;29.10;48.50
1468;DHT22;727;48.892;9.544;2022-08-23T09:02:29;29.30;47.00
1468;DHT22;727;48.892;9.544;2022-08-23T09:04:57;29.40;46.70
1468;DHT22;727;48.892;9.544;2022-08-23T09:07:29;29.40;47.00
1468;DHT22;727;48.892;9.544;2022-08-23T09:10:09;29.50;47.60
1468;DHT22;727;48.892;9.544;2022-08-23T09:12:50;29.70;46.60
1468;DHT22;727;48.892;9.544;2022-08-23T09:15:28;29.70;47.80
1468;DHT22;727;48.892;9.544;2022-08-23T09:18:05;29.70;47.10
1468;DHT22;727;48.892;9.544;2022-08-23T09:20:33;29.90;47.00
1468;DHT22;727;48.892;9.544;2022-08-23T09:23:06;30.00;47.10
1468;DHT22;727;48.892;9.544;2022-08-23T09:25:33;30.30;47.70
1468;DHT22;727;48.892;9.544;2022-08-23T09:28:00;30.60;46.20
1468;DHT22;727;48.892;9.544;2022-08-23T09:30:49;30.70;46.20
1468;DHT22;727;48.892;9.544;2022-08-23T09:33:35;30.50;46.00
1468;DHT22;727;48.892;9.544;2022-08-23T09:36:06;30.60;45.70
1468;DHT22;727;48.892;9.544;2022-08-23T09:38:49;30.70;45.30
1468;DHT22;727;48.892;9.544;2022-08-23T09:41:17;30.80;45.20
1468;DHT22;727;48.892;9.544;2022-08-23T09:43:45;30.90;45.00
1468;DHT22;727;48.892;9.544;2022-08-23T09:46:24;30.80;44.80
1468;DHT22;727;48.892;9.544;2022-08-23T09:48:51;31.00;45.20
1468;DHT22;727;48.892;9.544;2022-08-23T09:51:23;31.10;44.60
1468;DHT22;727;48.892;9.544;2022-08-23T09:54:02;31.20;44.90
1468;DHT22;727;48.892;9.544;2022-08-23T09:56:34;31.50;44.30
1468;DHT22;727;48.892;9.544;2022-08-23T09:59:02;31.60;44.00
1468;DHT22;727;48.892;9.544;2022-08-23T10:01:33;31.60;43.40
1468;DHT22;727;48.892;9.544;2022-08-23T10:04:11;31.70;43.50
1468;DHT22;727;48.892;9.544;2022-08-23T10:06:40;31.60;43.90
1468;DHT22;727;48.892;9.544;2022-08-23T10:09:08;31.70;43.10
1468;DHT22;727;48.892;9.544;2022-08-23T10:11:38;31.80;43.10
1468;DHT22;727;48.892;9.544;2022-08-23T10:14:06;31.80;43.20
1468;DHT22;727;48.892;9.544;2022-08-23T10:16:40;31.80;43.30
1468;DHT22;727;48.892;9.544;2022-08-23T10:19:18;31.60;43.40
1468;DHT22;727;48.892;9.544;2022-08-23T10:21:53;31.70;43.50
1468;DHT22;727;48.892;9.544;2022-08-23T10:24:28;31.40;43.50
1468;DHT22;727;48.892;9.544;2022-08-23T10:27:06;31.70;43.70
1468;DHT22;727;48.892;9.544;2022-08-23T10:29:55;32.00;43.20
1468;DHT22;727;48.892;9.544;2022-08-23T10:32:31;32.30;42.30
1468;DHT22;727;48.892;9.544;2022-08-23T10:35:12;32.50;42.00
1468;DHT22;727;48.892;9.544;2022-08-23T10:37:54;32.50;41.60
1468;DHT22;727;48.892;9.544;2022-08-23T10:40:26;32.30;42.10
1468;DHT22;727;48.892;9.544;2022-08-23T10:43:06;32.10;42.00
1468;DHT22;727;48.892;9.544;2022-08-23T10:45:37;31.90;42.40
1468;DHT22;727;48.892;9.544;2022-08-23T10:48:16;31.70;42.00
1468;DHT22;727;48.892;9.544;2022-08-23T10:50:48;31.20;43.10
1468;DHT22;727;48.892;9.544;2022-08-23T10:53:18;30.90;44.70
1468;DHT22;727;48.892;9.544;2022-08-23T10:55:51;30.60;44.70
1468;DHT22;727;48.892;9.544;2022-08-23T10:58:31;30.30;45.00
1468;DHT22;727;48.892;9.544;2022-08-23T11:00:59;30.20;44.90
1468;DHT22;727;48.892;9.544;2022-08-23T11:03:30;30.30;44.60
1468;DHT22;727;48.892;9.544;2022-08-23T11:09:35;29.70;44.80
1468;DHT22;727;48.892;9.544;2022-08-23T11:12:15;29.50;45.60
1468;DHT22;727;48.892;9.544;2022-08-23T11:14:46;29.30;46.90
1468;DHT22;727;48.892;9.544;2022-08-23T11:17:24;29.40;46.70
1468;DHT22;727;48.892;9.544;2022-08-23T11:19:55;29.90;46.40
1468;DHT22;727;48.892;9.544;2022-08-23T11:22:23;30.40;45.30
1468;DHT22;727;48.892;9.544;2022-08-23T11:24:56;31.20;45.10
1468;DHT22;727;48.892;9.544;2022-08-23T11:27:29;31.70;43.60
1468;DHT22;727;48.892;9.544;2022-08-23T11:29:58;31.90;42.50
1468;DHT22;727;48.892;9.544;2022-08-23T11:32:45;32.20;41.70
1468;DHT22;727;48.892;9.544;2022-08-23T11:35:37;31.80;41.60
1468;DHT22;727;48.892;9.544;2022-08-23T11:38:05;30.80;43.30
1468;DHT22;727;48.892;9.544;2022-08-23T11:40:41;30.30;44.00
1468;DHT22;727;48.892;9.544;2022-08-23T11:43:12;29.90;44.20
1468;DHT22;727;48.892;9.544;2022-08-23T11:45:47;29.80;45.00
1468;DHT22;727;48.892;9.544;2022-08-23T11:48:34;30.00;43.70
1468;DHT22;727;48.892;9.544;2022-08-23T11:51:13;30.10;43.80
1468;DHT22;727;48.892;9.544;2022-08-23T11:54:09;29.90;42.50
1468;DHT22;727;48.892;9.544;2022-08-23T11:56:46;30.00;43.80
1468;DHT22;727;48.892;9.544;2022-08-23T11:59:45;30.10;43.00
1468;DHT22;727;48.892;9.544;2022-08-23T12:05:40;29.80;42.70
1468;DHT22;727;48.892;9.544;2022-08-23T12:08:32;30.20;43.60
1468;DHT22;727;48.892;9.544;2022-08-23T12:11:14;30.90;41.60
1468;DHT22;727;48.892;9.544;2022-08-23T12:16:44;31.90;39.60
1468;DHT22;727;48.892;9.544;2022-08-23T12:19:23;32.40;38.80
1468;DHT22;727;48.892;9.544;2022-08-23T12:21:55;32.70;39.60
1468;DHT22;727;48.892;9.544;2022-08-23T12:24:25;32.80;39.30
1468;DHT22;727;48.892;9.544;2022-08-23T12:27:02;32.80;37.90
1468;DHT22;727;48.892;9.544;2022-08-23T12:29:45;32.90;37.80
1468;DHT22;727;48.892;9.544;2022-08-23T12:32:18;33.10;37.00
1468;DHT22;727;48.892;9.544;2022-08-23T12:34:57;33.40;37.20
1468;DHT22;727;48.892;9.544;2022-08-23T12:37:38;33.50;37.50
1468;DHT22;727;48.892;9.544;2022-08-23T12:40:11;33.80;36.60
1468;DHT22;727;48.892;9.544;2022-08-23T12:42:39;33.70;37.10
1468;DHT22;727;48.892;9.544;2022-08-23T12:45:12;33.50;36.60
1468;DHT22;727;48.892;9.544;2022-08-23T12:47:41;33.60;36.70
1468;DHT22;727;48.892;9.544;2022-08-23T12:50:18;33.60;36.70
1468;DHT22;727;48.892;9.544;2022-08-23T12:52:56;33.50;36.70
1468;DHT22;727;48.892;9.544;2022-08-23T12:55:29;33.50;36.30
1468;DHT22;727;48.892;9.544;2022-08-23T12:57:56;33.70;36.20
1468;DHT22;727;48.892;9.544;2022-08-23T13:00:27;34.10;36.00
1468;DHT22;727;48.892;9.544;2022-08-23T13:02:58;34.80;35.00
1468;DHT22;727;48.892;9.544;2022-08-23T13:05:36;35.60;33.80
1468;DHT22;727;48.892;9.544;2022-08-23T13:08:08;35.40;33.60
1468;DHT22;727;48.892;9.544;2022-08-23T13:10:38;35.10;33.90
1468;DHT22;727;48.892;9.544;2022-08-23T13:13:09;34.40;34.30
1468;DHT22;727;48.892;9.544;2022-08-23T13:15:45;34.20;35.10
1468;DHT22;727;48.892;9.544;2022-08-23T13:18:23;33.80;35.30
1468;DHT22;727;48.892;9.544;2022-08-23T13:21:24;32.90;36.20
1468;DHT22;727;48.892;9.544;2022-08-23T13:23:55;32.50;37.20
1468;DHT22;727;48.892;9.544;2022-08-23T13:26:24;32.20;38.30
1468;DHT22;727;48.892;9.544;2022-08-23T13:29:05;31.70;38.20
1468;DHT22;727;48.892;9.544;2022-08-23T13:31:56;31.30;38.70
1468;DHT22;727;48.892;9.544;2022-08-23T13:34:38;31.10;39.90
1468;DHT22;727;48.892;9.544;2022-08-23T13:37:15;31.30;39.50
1468;DHT22;727;48.892;9.544;2022-08-23T13:39:49;31.50;38.60
1468;DHT22;727;48.892;9.544;2022-08-23T13:42:25;31.70;38.40
1468;DHT22;727;48.892;9.544;2022-08-23T13:44:52;31.60;38.60
1468;DHT22;727;48.892;9.544;2022-08-23T13:47:22;31.50;38.90
1468;DHT22;727;48.892;9.544;2022-08-23T13:49:50;31.70;39.10
1468;DHT22;727;48.892;9.544;2022-08-23T13:52:17;31.90;38.50
1468;DHT22;727;48.892;9.544;2022-08-23T13:54:44;31.90;38.20
1468;DHT22;727;48.892;9.544;2022-08-23T13:57:14;31.50;38.50
1468;DHT22;727;48.892;9.544;2022-08-23T13:59:47;31.20;38.80
1468;DHT22;727;48.892;9.544;2022-08-23T14:02:17;30.70;39.60
1468;DHT22;727;48.892;9.544;2022-08-23T14:04:44;30.50;40.70
1468;DHT22;727;48.892;9.544;2022-08-23T14:07:11;30.80;40.60
1468;DHT22;727;48.892;9.544;2022-08-23T14:09:39;31.40;39.90
1468;DHT22;727;48.892;9.544;2022-08-23T14:12:10;32.10;38.20
1468;DHT22;727;48.892;9.544;2022-08-23T14:14:39;32.30;37.20
1468;DHT22;727;48.892;9.544;2022-08-23T14:17:06;32.30;37.30
1468;DHT22;727;48.892;9.544;2022-08-23T14:19:34;32.40;36.90
1468;DHT22;727;48.892;9.544;2022-08-23T14:22:01;32.40;37.50
1468;DHT22;727;48.892;9.544;2022-08-23T14:24:28;32.40;37.50
1468;DHT22;727;48.892;9.544;2022-08-23T14:26:55;32.50;37.20
1468;DHT22;727;48.892;9.544;2022-08-23T14:29:24;32.70;36.30
1468;DHT22;727;48.892;9.544;2022-08-23T14:31:55;32.70;36.80
1468;DHT22;727;48.892;9.544;2022-08-23T14:34:22;32.70;37.30
1468;DHT22;727;48.892;9.544;2022-08-23T14:36:49;32.50;37.20
1468;DHT22;727;48.892;9.544;2022-08-23T14:39:17;32.50;37.60
1468;DHT22;727;48.892;9.544;2022-08-23T14:41:45;32.10;37.80
1468;DHT22;727;48.892;9.544;2022-08-23T14:44:12;32.00;38.10
1468;DHT22;727;48.892;9.544;2022-08-23T14:46:40;31.90;37.90
1468;DHT22;727;48.892;9.544;2022-08-23T14:49:08;31.40;37.60
1468;DHT22;727;48.892;9.544;2022-08-23T14:51:37;31.60;38.70
1468;DHT22;727;48.892;9.544;2022-08-23T14:54:06;31.70;38.50
1468;DHT22;727;48.892;9.544;2022-08-23T14:56:33;31.70;38.50
1468;DHT22;727;48.892;9.544;2022-08-23T14:58:59;31.80;38.60
1468;DHT22;727;48.892;9.544;2022-08-23T15:01:26;31.90;38.40
1468;DHT22;727;48.892;9.544;2022-08-23T15:03:53;31.90;38.20
1468;DHT22;727;48.892;9.544;2022-08-23T15:06:21;31.90;38.10
1468;DHT22;727;48.892;9.544;2022-08-23T15:08:48;31.90;38.50
1468;DHT22;727;48.892;9.544;2022-08-23T15:11:15;31.70;38.80
1468;DHT22;727;48.892;9.544;2022-08-23T15:13:42;31.80;38.60
1468;DHT22;727;48.892;9.544;2022-08-23T15:16:10;32.00;38.30
1468;DHT22;727;48.892;9.544;2022-08-23T15:18:38;31.80;38.00
1468;DHT22;727;48.892;9.544;2022-08-23T15:21:05;31.50;38.50
1468;DHT22;727;48.892;9.544;2022-08-23T15:23:35;31.10;39.20
1468;DHT22;727;48.892;9.544;2022-08-23T15:26:02;30.90;39.20
1468;DHT22;727;48.892;9.544;2022-08-23T15:28:29;31.10;39.10
1468;DHT22;727;48.892;9.544;2022-08-23T15:30:56;31.30;38.80
1468;DHT22;727;48.892;9.544;2022-08-23T15:33:25;31.40;38.60
1468;DHT22;727;48.892;9.544;2022-08-23T15:35:51;31.60;38.70
1468;DHT22;727;48.892;9.544;2022-08-23T15:38:20;31.60;38.40
1468;DHT22;727;48.892;9.544;2022-08-23T15:40:49;31.40;39.10
1468;DHT22;727;48.892;9.544;2022-08-23T15:43:17;31.30;39.00
1468;DHT22;727;48.892;9.544;2022-08-23T15:45:44;31.10;39.40
1468;DHT22;727;48.892;9.544;2022-08-23T15:48:15;30.70;40.30
1468;DHT22;727;48.892;9.544;2022-08-23T15:50:45;30.40;40.80
1468;DHT22;727;48.892;9.544;2022-08-23T15:53:12;30.10;41.20
1468;DHT22;727;48.892;9.544;2022-08-23T15:55:40;29.90;42.00
1468;DHT22;727;48.892;9.544;2022-08-23T15:58:13;29.60;42.30
1468;DHT22;727;48.892;9.544;2022-08-23T16:00:41;29.60;42.20
1468;DHT22;727;48.892;9.544;2022-08-23T16:03:08;29.50;42.60
1468;DHT22;727;48.892;9.544;2022-08-23T16:05:36;29.30;43.30
1468;DHT22;727;48.892;9.544;2022-08-23T16:08:05;29.20;43.50
1468;DHT22;727;48.892;9.544;2022-08-23T16:10:32;29.00;43.90
1468;DHT22;727;48.892;9.544;2022-08-23T16:13:01;28.80;46.30
1468;DHT22;727;48.892;9.544;2022-08-23T16:15:30;28.70;46.80
1468;DHT22;727;48.892;9.544;2022-08-23T16:17:56;28.50;48.20
1468;DHT22;727;48.892;9.544;2022-08-23T16:20:23;28.40;48.50
1468;DHT22;727;48.892;9.544;2022-08-23T16:22:50;28.20;49.50
1468;DHT22;727;48.892;9.544;2022-08-23T16:25:17;28.20;49.70
1468;DHT22;727;48.892;9.544;2022-08-23T16:27:44;28.00;50.80
1468;DHT22;727;48.892;9.544;2022-08-23T16:30:12;27.80;51.40
1468;DHT22;727;48.892;9.544;2022-08-23T16:32:41;27.70;52.10
1468;DHT22;727;48.892;9.544;2022-08-23T16:35:08;27.50;52.60
1468;DHT22;727;48.892;9.544;2022-08-23T16:37:35;27.40;52.80
1468;DHT22;727;48.892;9.544;2022-08-23T16:40:04;27.20;52.90
1468;DHT22;727;48.892;9.544;2022-08-23T16:42:31;27.00;53.60
1468;DHT22;727;48.892;9.544;2022-08-23T16:45:01;26.90;54.30
1468;DHT22;727;48.892;9.544;2022-08-23T16:47:38;26.80;54.60